sensor_id;sensor_type;location;lat;lon;timestamp;P1;durP1;ratioP1;P2;durP2;ratioP2
33760;SDS011;20084;47.912;19.044;2023-04-08T00:01:06;9.82;;;8.82;;
33760;SDS011;20084;47.912;19.044;2023-04-08T00:03:32;10.07;;;8.68;;
33760;SDS011;20084;47.912;19.044;2023-04-08T00:05:57;10.23;;;8.55;;
33760;SDS011;20084;47.912;19.044;2023-04-08T00:08:24;9.65;;;8.65;;
33760;SDS011;20084;47.912;19.044;2023-04-08T00:10:50;8.80;;;7.63;;
33760;SDS011;20084;47.912;19.044;2023-04-08T00:13:16;10.02;;;8.20;;
33760;SDS011;20084;47.912;19.044;2023-04-08T00:15:41;8.75;;;7.63;;
33760;SDS011;20084;47.912;19.044;2023-04-08T00:18:07;8.63;;;7.60;;
33760;SDS011;20084;47.912;19.044;2023-04-08T00:20:33;8.90;;;7.97;;
33760;SDS011;20084;47.912;19.044;2023-04-08T00:22:58;7.75;;;6.95;;
33760;SDS011;20084;47.912;19.044;2023-04-08T00:25:24;8.88;;;7.32;;
33760;SDS011;20084;47.912;19.044;2023-04-08T00:27:50;8.43;;;7.45;;
33760;SDS011;20084;47.912;19.044;2023-04-08T00:30:15;8.60;;;6.82;;
33760;SDS011;20084;47.912;19.044;2023-04-08T00:32:41;7.97;;;6.93;;
33760;SDS011;20084;47.912;19.044;2023-04-08T00:35:07;7.97;;;7.18;;
33760;SDS011;20084;47.912;19.044;2023-04-08T00:37:33;7.55;;;6.75;;
33760;SDS011;20084;47.912;19.044;2023-04-08T00:39:59;9.18;;;7.68;;
33760;SDS011;20084;47.912;19.044;2023-04-08T00:42:25;7.22;;;6.53;;
33760;SDS011;20084;47.912;19.044;2023-04-08T00:44:50;8.35;;;7.13;;
33760;SDS011;20084;47.912;19.044;2023-04-08T00:47:16;7.93;;;6.95;;
33760;SDS011;20084;47.912;19.044;2023-04-08T00:49:43;8.80;;;7.30;;
33760;SDS011;20084;47.912;19.044;2023-04-08T00:52:09;8.82;;;7.93;;
33760;SDS011;20084;47.912;19.044;2023-04-08T00:54:36;8.68;;;7.50;;
33760;SDS011;20084;47.912;19.044;2023-04-08T00:57:02;8.48;;;7.57;;
33760;SDS011;20084;47.912;19.044;2023-04-08T00:59:29;9.20;;;8.15;;
33760;SDS011;20084;47.912;19.044;2023-04-08T01:01:58;9.80;;;8.43;;
33760;SDS011;20084;47.912;19.044;2023-04-08T01:07:24;9.13;;;7.60;;
33760;SDS011;20084;47.912;19.044;2023-04-08T01:10:04;8.20;;;7.40;;
33760;SDS011;20084;47.912;19.044;2023-04-08T01:12:39;8.35;;;7.55;;
33760;SDS011;20084;47.912;19.044;2023-04-08T01:15:10;9.65;;;8.45;;
33760;SDS011;20084;47.912;19.044;2023-04-08T01:17:37;8.88;;;7.85;;
33760;SDS011;20084;47.912;19.044;2023-04-08T01:20:04;9.00;;;8.10;;
33760;SDS011;20084;47.912;19.044;2023-04-08T01:25:21;10.18;;;8.45;;
33760;SDS011;20084;47.912;19.044;2023-04-08T01:27:50;9.55;;;8.13;;
33760;SDS011;20084;47.912;19.044;2023-04-08T01:30:21;8.65;;;7.32;;
33760;SDS011;20084;47.912;19.044;2023-04-08T01:32:48;9.80;;;8.43;;
33760;SDS011;20084;47.912;19.044;2023-04-08T01:35:16;8.75;;;7.85;;
33760;SDS011;20084;47.912;19.044;2023-04-08T01:37:42;9.20;;;7.38;;
33760;SDS011;20084;47.912;19.044;2023-04-08T01:40:10;9.68;;;8.15;;
33760;SDS011;20084;47.912;19.044;2023-04-08T01:42:37;8.32;;;7.53;;
33760;SDS011;20084;47.912;19.044;2023-04-08T01:45:03;9.20;;;8.30;;
33760;SDS011;20084;47.912;19.044;2023-04-08T01:47:31;8.43;;;7.53;;
33760;SDS011;20084;47.912;19.044;2023-04-08T01:49:58;8.45;;;7.55;;
33760;SDS011;20084;47.912;19.044;2023-04-08T01:52:25;8.80;;;7.82;;
33760;SDS011;20084;47.912;19.044;2023-04-08T01:54:52;9.15;;;8.13;;
33760;SDS011;20084;47.912;19.044;2023-04-08T01:57:21;9.98;;;8.52;;
33760;SDS011;20084;47.912;19.044;2023-04-08T01:59:51;9.20;;;7.93;;
33760;SDS011;20084;47.912;19.044;2023-04-08T02:02:20;8.70;;;7.75;;
33760;SDS011;20084;47.912;19.044;2023-04-08T02:04:48;8.75;;;7.88;;
33760;SDS011;20084;47.912;19.044;2023-04-08T02:07:14;8.73;;;7.78;;
33760;SDS011;20084;47.912;19.044;2023-04-08T02:09:40;9.00;;;8.10;;
33760;SDS011;20084;47.912;19.044;2023-04-08T02:12:06;8.35;;;7.40;;
33760;SDS011;20084;47.912;19.044;2023-04-08T02:14:32;8.68;;;7.78;;
33760;SDS011;20084;47.912;19.044;2023-04-08T02:17:04;8.15;;;7.28;;
33760;SDS011;20084;47.912;19.044;2023-04-08T02:19:39;9.02;;;7.30;;
33760;SDS011;20084;47.912;19.044;2023-04-08T02:22:18;9.00;;;8.05;;
33760;SDS011;20084;47.912;19.044;2023-04-08T02:25:07;8.18;;;7.32;;
33760;SDS011;20084;47.912;19.044;2023-04-08T02:27:35;8.35;;;7.47;;
33760;SDS011;20084;47.912;19.044;2023-04-08T02:30:03;9.38;;;8.05;;
33760;SDS011;20084;47.912;19.044;2023-04-08T02:32:31;8.80;;;7.57;;
33760;SDS011;20084;47.912;19.044;2023-04-08T02:34:58;8.70;;;7.40;;
33760;SDS011;20084;47.912;19.044;2023-04-08T02:37:31;8.70;;;7.80;;
33760;SDS011;20084;47.912;19.044;2023-04-08T02:39:57;8.73;;;7.50;;
33760;SDS011;20084;47.912;19.044;2023-04-08T02:42:23;9.15;;;7.47;;
33760;SDS011;20084;47.912;19.044;2023-04-08T02:44:49;8.57;;;7.68;;
33760;SDS011;20084;47.912;19.044;2023-04-08T02:47:15;8.85;;;7.75;;
33760;SDS011;20084;47.912;19.044;2023-04-08T02:49:40;8.88;;;7.97;;
33760;SDS011;20084;47.912;19.044;2023-04-08T02:52:06;8.82;;;7.93;;
33760;SDS011;20084;47.912;19.044;2023-04-08T02:54:32;9.80;;;7.80;;
33760;SDS011;20084;47.912;19.044;2023-04-08T02:56:57;8.10;;;7.30;;
33760;SDS011;20084;47.912;19.044;2023-04-08T02:59:23;8.98;;;8.02;;
33760;SDS011;20084;47.912;19.044;2023-04-08T03:01:49;8.50;;;7.20;;
33760;SDS011;20084;47.912;19.044;2023-04-08T03:04:15;8.82;;;7.72;;
33760;SDS011;20084;47.912;19.044;2023-04-08T03:06:41;9.25;;;8.02;;
33760;SDS011;20084;47.912;19.044;2023-04-08T03:09:06;8.07;;;7.20;;
33760;SDS011;20084;47.912;19.044;2023-04-08T03:11:32;9.75;;;8.10;;
33760;SDS011;20084;47.912;19.044;2023-04-08T03:13:58;8.57;;;7.68;;
33760;SDS011;20084;47.912;19.044;2023-04-08T03:16:23;9.75;;;8.10;;
33760;SDS011;20084;47.912;19.044;2023-04-08T03:18:49;9.95;;;8.23;;
33760;SDS011;20084;47.912;19.044;2023-04-08T03:21:15;10.57;;;9.25;;
33760;SDS011;20084;47.912;19.044;2023-04-08T03:23:41;10.60;;;8.45;;
33760;SDS011;20084;47.912;19.044;2023-04-08T03:26:07;10.25;;;8.52;;
33760;SDS011;20084;47.912;19.044;2023-04-08T03:28:32;10.57;;;9.02;;
33760;SDS011;20084;47.912;19.044;2023-04-08T03:30:58;11.98;;;10.23;;
33760;SDS011;20084;47.912;19.044;2023-04-08T03:33:25;14.43;;;10.25;;
33760;SDS011;20084;47.912;19.044;2023-04-08T03:35:52;11.68;;;10.27;;
33760;SDS011;20084;47.912;19.044;2023-04-08T03:38:18;13.35;;;10.02;;
33760;SDS011;20084;47.912;19.044;2023-04-08T03:40:43;11.82;;;9.70;;
33760;SDS011;20084;47.912;19.044;2023-04-08T03:43:09;13.40;;;10.48;;
33760;SDS011;20084;47.912;19.044;2023-04-08T03:45:36;11.98;;;10.05;;
33760;SDS011;20084;47.912;19.044;2023-04-08T03:48:02;13.10;;;10.05;;
33760;SDS011;20084;47.912;19.044;2023-04-08T03:50:27;12.32;;;10.95;;
33760;SDS011;20084;47.912;19.044;2023-04-08T03:52:53;12.05;;;10.10;;
33760;SDS011;20084;47.912;19.044;2023-04-08T03:55:19;13.00;;;10.18;;
33760;SDS011;20084;47.912;19.044;2023-04-08T03:57:45;12.90;;;10.05;;
33760;SDS011;20084;47.912;19.044;2023-04-08T04:00:10;11.82;;;10.43;;
33760;SDS011;20084;47.912;19.044;2023-04-08T04:02:36;11.20;;;10.02;;
33760;SDS011;20084;47.912;19.044;2023-04-08T04:05:02;12.50;;;10.40;;
33760;SDS011;20084;47.912;19.044;2023-04-08T04:07:28;13.80;;;11.27;;
33760;SDS011;20084;47.912;19.044;2023-04-08T04:09:53;12.05;;;10.70;;
33760;SDS011;20084;47.912;19.044;2023-04-08T04:12:21;14.40;;;11.55;;
33760;SDS011;20084;47.912;19.044;2023-04-08T04:14:47;12.15;;;10.32;;
33760;SDS011;20084;47.912;19.044;2023-04-08T04:17:13;13.02;;;11.05;;
33760;SDS011;20084;47.912;19.044;2023-04-08T04:19:38;12.80;;;10.52;;
33760;SDS011;20084;47.912;19.044;2023-04-08T04:22:04;13.15;;;10.57;;
33760;SDS011;20084;47.912;19.044;2023-04-08T04:24:30;12.07;;;10.70;;
33760;SDS011;20084;47.912;19.044;2023-04-08T04:26:55;15.30;;;12.23;;
33760;SDS011;20084;47.912;19.044;2023-04-08T04:29:21;12.68;;;10.80;;
33760;SDS011;20084;47.912;19.044;2023-04-08T04:31:46;13.88;;;11.63;;
33760;SDS011;20084;47.912;19.044;2023-04-08T04:34:12;13.80;;;10.57;;
33760;SDS011;20084;47.912;19.044;2023-04-08T04:36:38;13.57;;;11.88;;
33760;SDS011;20084;47.912;19.044;2023-04-08T04:39:03;15.20;;;12.50;;
33760;SDS011;20084;47.912;19.044;2023-04-08T04:41:29;15.38;;;12.20;;
33760;SDS011;20084;47.912;19.044;2023-04-08T04:43:55;14.50;;;11.45;;
33760;SDS011;20084;47.912;19.044;2023-04-08T04:46:21;13.52;;;10.98;;
33760;SDS011;20084;47.912;19.044;2023-04-08T04:48:47;13.50;;;11.40;;
33760;SDS011;20084;47.912;19.044;2023-04-08T04:51:13;15.05;;;11.70;;
33760;SDS011;20084;47.912;19.044;2023-04-08T04:53:38;15.85;;;12.13;;
33760;SDS011;20084;47.912;19.044;2023-04-08T04:56:04;15.30;;;12.27;;
33760;SDS011;20084;47.912;19.044;2023-04-08T04:58:30;14.73;;;12.43;;
33760;SDS011;20084;47.912;19.044;2023-04-08T05:00:56;16.08;;;12.65;;
33760;SDS011;20084;47.912;19.044;2023-04-08T05:03:22;16.13;;;12.95;;
33760;SDS011;20084;47.912;19.044;2023-04-08T05:05:51;14.57;;;11.93;;
33760;SDS011;20084;47.912;19.044;2023-04-08T05:08:17;16.65;;;13.13;;
33760;SDS011;20084;47.912;19.044;2023-04-08T05:10:43;15.35;;;12.75;;
33760;SDS011;20084;47.912;19.044;2023-04-08T05:13:09;18.40;;;15.60;;
33760;SDS011;20084;47.912;19.044;2023-04-08T05:15:35;16.17;;;13.45;;
33760;SDS011;20084;47.912;19.044;2023-04-08T05:18:01;17.27;;;13.05;;
33760;SDS011;20084;47.912;19.044;2023-04-08T05:20:27;16.35;;;13.10;;
33760;SDS011;20084;47.912;19.044;2023-04-08T05:22:52;18.50;;;14.07;;
33760;SDS011;20084;47.912;19.044;2023-04-08T05:25:18;15.55;;;13.73;;
33760;SDS011;20084;47.912;19.044;2023-04-08T05:27:44;16.67;;;13.63;;
33760;SDS011;20084;47.912;19.044;2023-04-08T05:30:10;16.55;;;12.85;;
33760;SDS011;20084;47.912;19.044;2023-04-08T05:32:36;17.77;;;14.52;;
33760;SDS011;20084;47.912;19.044;2023-04-08T05:35:02;21.02;;;15.77;;
33760;SDS011;20084;47.912;19.044;2023-04-08T05:37:28;17.67;;;14.35;;
33760;SDS011;20084;47.912;19.044;2023-04-08T05:39:54;19.98;;;15.15;;
33760;SDS011;20084;47.912;19.044;2023-04-08T05:42:20;15.88;;;13.05;;
33760;SDS011;20084;47.912;19.044;2023-04-08T05:44:45;16.63;;;13.88;;
33760;SDS011;20084;47.912;19.044;2023-04-08T05:47:11;18.15;;;13.80;;
33760;SDS011;20084;47.912;19.044;2023-04-08T05:49:38;16.60;;;13.32;;
33760;SDS011;20084;47.912;19.044;2023-04-08T05:52:04;19.42;;;14.43;;
33760;SDS011;20084;47.912;19.044;2023-04-08T05:54:30;16.58;;;13.55;;
33760;SDS011;20084;47.912;19.044;2023-04-08T05:56:56;16.35;;;13.68;;
33760;SDS011;20084;47.912;19.044;2023-04-08T05:59:22;17.52;;;14.85;;
33760;SDS011;20084;47.912;19.044;2023-04-08T06:01:47;17.17;;;13.75;;
33760;SDS011;20084;47.912;19.044;2023-04-08T06:04:13;18.52;;;14.80;;
33760;SDS011;20084;47.912;19.044;2023-04-08T06:06:38;22.20;;;14.68;;
33760;SDS011;20084;47.912;19.044;2023-04-08T06:09:04;17.83;;;13.55;;
33760;SDS011;20084;47.912;19.044;2023-04-08T06:11:30;18.35;;;14.48;;
33760;SDS011;20084;47.912;19.044;2023-04-08T06:13:56;17.63;;;14.65;;
33760;SDS011;20084;47.912;19.044;2023-04-08T06:16:21;19.52;;;14.93;;
33760;SDS011;20084;47.912;19.044;2023-04-08T06:18:47;18.55;;;14.43;;
33760;SDS011;20084;47.912;19.044;2023-04-08T06:21:13;18.92;;;15.68;;
33760;SDS011;20084;47.912;19.044;2023-04-08T06:23:38;20.10;;;15.40;;
33760;SDS011;20084;47.912;19.044;2023-04-08T06:26:04;19.15;;;14.18;;
33760;SDS011;20084;47.912;19.044;2023-04-08T06:28:30;18.77;;;14.05;;
33760;SDS011;20084;47.912;19.044;2023-04-08T06:30:56;19.10;;;13.85;;
33760;SDS011;20084;47.912;19.044;2023-04-08T06:33:22;16.88;;;14.25;;
33760;SDS011;20084;47.912;19.044;2023-04-08T06:35:48;16.00;;;14.07;;
33760;SDS011;20084;47.912;19.044;2023-04-08T06:38:13;16.83;;;14.02;;
33760;SDS011;20084;47.912;19.044;2023-04-08T06:40:39;15.90;;;13.50;;
33760;SDS011;20084;47.912;19.044;2023-04-08T06:43:05;17.15;;;13.93;;
33760;SDS011;20084;47.912;19.044;2023-04-08T06:45:34;24.17;;;14.25;;
33760;SDS011;20084;47.912;19.044;2023-04-08T06:48:00;15.98;;;13.15;;
33760;SDS011;20084;47.912;19.044;2023-04-08T06:50:26;18.27;;;14.63;;
33760;SDS011;20084;47.912;19.044;2023-04-08T06:52:51;17.95;;;13.05;;
33760;SDS011;20084;47.912;19.044;2023-04-08T06:55:17;26.67;;;16.75;;
33760;SDS011;20084;47.912;19.044;2023-04-08T06:57:42;17.23;;;13.90;;
33760;SDS011;20084;47.912;19.044;2023-04-08T07:00:08;17.65;;;14.55;;
33760;SDS011;20084;47.912;19.044;2023-04-08T07:02:34;17.52;;;13.88;;
33760;SDS011;20084;47.912;19.044;2023-04-08T07:05:00;18.63;;;14.38;;
33760;SDS011;20084;47.912;19.044;2023-04-08T07:07:26;16.85;;;13.43;;
33760;SDS011;20084;47.912;19.044;2023-04-08T07:09:51;17.73;;;14.43;;
33760;SDS011;20084;47.912;19.044;2023-04-08T07:12:17;16.25;;;13.77;;
33760;SDS011;20084;47.912;19.044;2023-04-08T07:14:43;17.65;;;14.55;;
33760;SDS011;20084;47.912;19.044;2023-04-08T07:17:08;18.38;;;14.48;;
33760;SDS011;20084;47.912;19.044;2023-04-08T07:19:34;19.85;;;16.02;;
33760;SDS011;20084;47.912;19.044;2023-04-08T07:22:00;18.08;;;15.05;;
33760;SDS011;20084;47.912;19.044;2023-04-08T07:24:25;17.67;;;13.80;;
33760;SDS011;20084;47.912;19.044;2023-04-08T07:26:51;19.95;;;15.40;;
33760;SDS011;20084;47.912;19.044;2023-04-08T07:29:17;20.27;;;15.65;;
33760;SDS011;20084;47.912;19.044;2023-04-08T07:31:43;18.60;;;15.02;;
33760;SDS011;20084;47.912;19.044;2023-04-08T07:34:08;19.75;;;15.65;;
33760;SDS011;20084;47.912;19.044;2023-04-08T07:36:34;19.05;;;15.40;;
33760;SDS011;20084;47.912;19.044;2023-04-08T07:39:00;17.50;;;13.55;;
33760;SDS011;20084;47.912;19.044;2023-04-08T07:41:26;18.70;;;14.10;;
33760;SDS011;20084;47.912;19.044;2023-04-08T07:43:52;22.15;;;14.38;;
33760;SDS011;20084;47.912;19.044;2023-04-08T07:46:17;20.58;;;13.85;;
33760;SDS011;20084;47.912;19.044;2023-04-08T07:48:44;18.02;;;13.88;;
33760;SDS011;20084;47.912;19.044;2023-04-08T07:51:10;18.98;;;14.77;;
33760;SDS011;20084;47.912;19.044;2023-04-08T07:53:35;21.40;;;15.40;;
33760;SDS011;20084;47.912;19.044;2023-04-08T07:56:01;20.40;;;15.68;;
33760;SDS011;20084;47.912;19.044;2023-04-08T07:58:28;18.75;;;14.70;;
33760;SDS011;20084;47.912;19.044;2023-04-08T08:00:53;28.58;;;15.85;;
33760;SDS011;20084;47.912;19.044;2023-04-08T08:03:21;23.13;;;14.48;;
33760;SDS011;20084;47.912;19.044;2023-04-08T08:05:46;19.85;;;16.10;;
33760;SDS011;20084;47.912;19.044;2023-04-08T08:08:12;19.92;;;15.35;;
33760;SDS011;20084;47.912;19.044;2023-04-08T08:10:38;20.80;;;15.45;;
33760;SDS011;20084;47.912;19.044;2023-04-08T08:13:05;16.42;;;13.43;;
33760;SDS011;20084;47.912;19.044;2023-04-08T08:15:32;17.50;;;14.30;;
33760;SDS011;20084;47.912;19.044;2023-04-08T08:17:57;16.42;;;13.20;;
33760;SDS011;20084;47.912;19.044;2023-04-08T08:20:23;18.70;;;14.73;;
33760;SDS011;20084;47.912;19.044;2023-04-08T08:22:49;17.40;;;13.95;;
33760;SDS011;20084;47.912;19.044;2023-04-08T08:25:15;19.00;;;15.70;;
33760;SDS011;20084;47.912;19.044;2023-04-08T08:27:41;19.20;;;15.15;;
33760;SDS011;20084;47.912;19.044;2023-04-08T08:30:07;20.42;;;15.48;;
33760;SDS011;20084;47.912;19.044;2023-04-08T08:32:34;17.70;;;14.10;;
33760;SDS011;20084;47.912;19.044;2023-04-08T08:35:00;17.83;;;13.48;;
33760;SDS011;20084;47.912;19.044;2023-04-08T08:37:26;26.55;;;14.18;;
33760;SDS011;20084;47.912;19.044;2023-04-08T08:39:52;19.52;;;14.27;;
33760;SDS011;20084;47.912;19.044;2023-04-08T08:42:21;18.90;;;14.38;;
33760;SDS011;20084;47.912;19.044;2023-04-08T08:44:48;17.13;;;13.40;;
33760;SDS011;20084;47.912;19.044;2023-04-08T08:47:17;20.13;;;15.65;;
33760;SDS011;20084;47.912;19.044;2023-04-08T08:49:43;23.58;;;17.65;;
33760;SDS011;20084;47.912;19.044;2023-04-08T08:52:09;22.75;;;17.45;;
33760;SDS011;20084;47.912;19.044;2023-04-08T08:54:35;33.38;;;17.55;;
33760;SDS011;20084;47.912;19.044;2023-04-08T08:57:02;35.63;;;21.20;;
33760;SDS011;20084;47.912;19.044;2023-04-08T08:59:27;33.70;;;16.50;;
33760;SDS011;20084;47.912;19.044;2023-04-08T09:01:53;22.25;;;13.40;;
33760;SDS011;20084;47.912;19.044;2023-04-08T09:04:19;30.77;;;13.20;;
33760;SDS011;20084;47.912;19.044;2023-04-08T09:06:47;14.45;;;12.30;;
33760;SDS011;20084;47.912;19.044;2023-04-08T09:09:15;12.82;;;10.77;;
33760;SDS011;20084;47.912;19.044;2023-04-08T09:11:42;12.18;;;10.55;;
33760;SDS011;20084;47.912;19.044;2023-04-08T09:14:22;12.77;;;10.63;;
33760;SDS011;20084;47.912;19.044;2023-04-08T09:16:51;18.85;;;14.13;;
33760;SDS011;20084;47.912;19.044;2023-04-08T09:19:17;18.70;;;14.75;;
33760;SDS011;20084;47.912;19.044;2023-04-08T09:21:43;20.05;;;15.32;;
33760;SDS011;20084;47.912;19.044;2023-04-08T09:24:09;22.50;;;15.45;;
33760;SDS011;20084;47.912;19.044;2023-04-08T09:26:52;21.45;;;16.52;;
33760;SDS011;20084;47.912;19.044;2023-04-08T09:29:18;14.70;;;11.10;;
33760;SDS011;20084;47.912;19.044;2023-04-08T09:31:52;14.15;;;10.85;;
33760;SDS011;20084;47.912;19.044;2023-04-08T09:34:19;14.20;;;10.80;;
33760;SDS011;20084;47.912;19.044;2023-04-08T09:36:47;13.00;;;11.15;;
33760;SDS011;20084;47.912;19.044;2023-04-08T09:39:16;12.23;;;10.63;;
33760;SDS011;20084;47.912;19.044;2023-04-08T09:41:42;11.35;;;10.05;;
33760;SDS011;20084;47.912;19.044;2023-04-08T09:44:09;12.73;;;11.30;;
33760;SDS011;20084;47.912;19.044;2023-04-08T09:46:39;14.52;;;11.02;;
33760;SDS011;20084;47.912;19.044;2023-04-08T09:49:45;16.80;;;10.90;;
33760;SDS011;20084;47.912;19.044;2023-04-08T09:52:09;12.70;;;11.10;;
33760;SDS011;20084;47.912;19.044;2023-04-08T09:57:35;13.88;;;11.52;;
33760;SDS011;20084;47.912;19.044;2023-04-08T10:00:07;13.82;;;11.60;;
33760;SDS011;20084;47.912;19.044;2023-04-08T10:02:42;11.90;;;10.23;;
33760;SDS011;20084;47.912;19.044;2023-04-08T10:05:28;17.40;;;14.27;;
33760;SDS011;20084;47.912;19.044;2023-04-08T10:07:55;11.45;;;10.18;;
33760;SDS011;20084;47.912;19.044;2023-04-08T10:10:21;13.13;;;11.45;;
33760;SDS011;20084;47.912;19.044;2023-04-08T10:12:48;12.80;;;11.45;;
33760;SDS011;20084;47.912;19.044;2023-04-08T10:17:51;12.52;;;10.93;;
33760;SDS011;20084;47.912;19.044;2023-04-08T10:22:59;13.32;;;11.90;;
33760;SDS011;20084;47.912;19.044;2023-04-08T10:25:37;13.57;;;12.18;;
33760;SDS011;20084;47.912;19.044;2023-04-08T10:33:12;15.77;;;14.07;;
33760;SDS011;20084;47.912;19.044;2023-04-08T10:38:17;14.15;;;12.75;;
33760;SDS011;20084;47.912;19.044;2023-04-08T10:40:43;14.45;;;12.93;;
33760;SDS011;20084;47.912;19.044;2023-04-08T10:43:10;16.38;;;14.50;;
33760;SDS011;20084;47.912;19.044;2023-04-08T10:45:38;18.02;;;14.25;;
33760;SDS011;20084;47.912;19.044;2023-04-08T10:50:41;15.90;;;14.20;;
33760;SDS011;20084;47.912;19.044;2023-04-08T10:53:08;16.60;;;14.88;;
33760;SDS011;20084;47.912;19.044;2023-04-08T10:55:35;18.55;;;16.58;;
33760;SDS011;20084;47.912;19.044;2023-04-08T10:58:04;20.45;;;18.35;;
33760;SDS011;20084;47.912;19.044;2023-04-08T11:00:36;22.00;;;18.48;;
33760;SDS011;20084;47.912;19.044;2023-04-08T11:05:33;16.70;;;14.68;;
33760;SDS011;20084;47.912;19.044;2023-04-08T11:08:00;16.65;;;14.95;;
33760;SDS011;20084;47.912;19.044;2023-04-08T11:10:26;18.60;;;15.65;;
33760;SDS011;20084;47.912;19.044;2023-04-08T11:12:56;17.15;;;15.35;;
33760;SDS011;20084;47.912;19.044;2023-04-08T11:15:25;18.52;;;15.00;;
33760;SDS011;20084;47.912;19.044;2023-04-08T11:17:52;19.65;;;13.55;;
33760;SDS011;20084;47.912;19.044;2023-04-08T11:20:19;13.85;;;12.40;;
33760;SDS011;20084;47.912;19.044;2023-04-08T11:22:45;14.10;;;12.52;;
33760;SDS011;20084;47.912;19.044;2023-04-08T11:25:11;12.63;;;11.32;;
33760;SDS011;20084;47.912;19.044;2023-04-08T11:27:37;17.55;;;15.65;;
33760;SDS011;20084;47.912;19.044;2023-04-08T11:30:05;20.85;;;14.35;;
33760;SDS011;20084;47.912;19.044;2023-04-08T11:32:32;15.88;;;13.82;;
33760;SDS011;20084;47.912;19.044;2023-04-08T11:34:58;13.20;;;11.85;;
33760;SDS011;20084;47.912;19.044;2023-04-08T11:37:37;12.27;;;11.07;;
33760;SDS011;20084;47.912;19.044;2023-04-08T11:40:09;13.93;;;9.95;;
33760;SDS011;20084;47.912;19.044;2023-04-08T11:42:43;10.55;;;9.52;;
33760;SDS011;20084;47.912;19.044;2023-04-08T11:45:12;10.27;;;9.13;;
33760;SDS011;20084;47.912;19.044;2023-04-08T11:47:40;10.73;;;9.32;;
33760;SDS011;20084;47.912;19.044;2023-04-08T11:50:07;12.80;;;9.95;;
33760;SDS011;20084;47.912;19.044;2023-04-08T11:52:39;11.27;;;10.13;;
33760;SDS011;20084;47.912;19.044;2023-04-08T11:55:21;11.15;;;9.98;;
33760;SDS011;20084;47.912;19.044;2023-04-08T11:57:54;10.15;;;9.13;;
33760;SDS011;20084;47.912;19.044;2023-04-08T12:00:21;9.02;;;8.10;;
33760;SDS011;20084;47.912;19.044;2023-04-08T12:02:47;8.93;;;7.80;;
33760;SDS011;20084;47.912;19.044;2023-04-08T12:05:14;9.50;;;8.02;;
33760;SDS011;20084;47.912;19.044;2023-04-08T12:07:40;9.13;;;8.23;;
33760;SDS011;20084;47.912;19.044;2023-04-08T12:10:06;9.98;;;8.90;;
33760;SDS011;20084;47.912;19.044;2023-04-08T12:12:33;11.52;;;9.85;;
33760;SDS011;20084;47.912;19.044;2023-04-08T12:14:58;11.45;;;9.55;;
33760;SDS011;20084;47.912;19.044;2023-04-08T12:17:25;8.48;;;7.57;;
33760;SDS011;20084;47.912;19.044;2023-04-08T12:19:50;12.68;;;9.05;;
33760;SDS011;20084;47.912;19.044;2023-04-08T12:22:16;13.18;;;11.82;;
33760;SDS011;20084;47.912;19.044;2023-04-08T12:24:41;9.57;;;8.68;;
33760;SDS011;20084;47.912;19.044;2023-04-08T12:27:07;8.75;;;7.85;;
33760;SDS011;20084;47.912;19.044;2023-04-08T12:29:33;8.43;;;7.63;;
33760;SDS011;20084;47.912;19.044;2023-04-08T12:31:58;8.02;;;7.22;;
33760;SDS011;20084;47.912;19.044;2023-04-08T12:34:24;8.82;;;7.93;;
33760;SDS011;20084;47.912;19.044;2023-04-08T12:36:50;8.65;;;7.75;;
33760;SDS011;20084;47.912;19.044;2023-04-08T12:39:15;7.32;;;6.60;;
33760;SDS011;20084;47.912;19.044;2023-04-08T12:41:41;8.50;;;7.68;;
33760;SDS011;20084;47.912;19.044;2023-04-08T12:44:07;7.22;;;6.60;;
33760;SDS011;20084;47.912;19.044;2023-04-08T12:46:32;8.38;;;7.60;;
33760;SDS011;20084;47.912;19.044;2023-04-08T12:48:58;9.30;;;8.40;;
33760;SDS011;20084;47.912;19.044;2023-04-08T12:51:24;10.75;;;9.65;;
33760;SDS011;20084;47.912;19.044;2023-04-08T12:53:50;14.60;;;13.27;;
33760;SDS011;20084;47.912;19.044;2023-04-08T12:56:16;10.32;;;9.30;;
33760;SDS011;20084;47.912;19.044;2023-04-08T12:58:42;9.75;;;8.85;;
33760;SDS011;20084;47.912;19.044;2023-04-08T13:01:07;10.02;;;9.02;;
33760;SDS011;20084;47.912;19.044;2023-04-08T13:03:33;9.73;;;8.73;;
33760;SDS011;20084;47.912;19.044;2023-04-08T13:06:00;9.77;;;7.43;;
33760;SDS011;20084;47.912;19.044;2023-04-08T13:08:26;6.15;;;5.55;;
33760;SDS011;20084;47.912;19.044;2023-04-08T13:10:51;8.38;;;7.57;;
33760;SDS011;20084;47.912;19.044;2023-04-08T13:13:18;8.10;;;7.32;;
33760;SDS011;20084;47.912;19.044;2023-04-08T13:15:44;9.32;;;8.40;;
33760;SDS011;20084;47.912;19.044;2023-04-08T13:18:10;12.60;;;11.30;;
33760;SDS011;20084;47.912;19.044;2023-04-08T13:20:36;8.27;;;7.47;;
33760;SDS011;20084;47.912;19.044;2023-04-08T13:23:01;7.78;;;6.97;;
33760;SDS011;20084;47.912;19.044;2023-04-08T13:25:27;7.82;;;7.10;;
33760;SDS011;20084;47.912;19.044;2023-04-08T13:27:52;7.30;;;6.60;;
33760;SDS011;20084;47.912;19.044;2023-04-08T13:30:18;6.35;;;5.57;;
33760;SDS011;20084;47.912;19.044;2023-04-08T13:32:44;6.35;;;5.85;;
33760;SDS011;20084;47.912;19.044;2023-04-08T13:35:10;7.32;;;6.63;;
33760;SDS011;20084;47.912;19.044;2023-04-08T13:37:35;10.48;;;8.35;;
33760;SDS011;20084;47.912;19.044;2023-04-08T13:40:01;8.30;;;7.50;;
33760;SDS011;20084;47.912;19.044;2023-04-08T13:42:28;9.80;;;8.77;;
33760;SDS011;20084;47.912;19.044;2023-04-08T13:44:57;7.82;;;7.03;;
33760;SDS011;20084;47.912;19.044;2023-04-08T13:47:23;21.60;;;19.40;;
33760;SDS011;20084;47.912;19.044;2023-04-08T13:49:48;16.42;;;14.82;;
33760;SDS011;20084;47.912;19.044;2023-04-08T13:52:14;16.13;;;14.10;;
33760;SDS011;20084;47.912;19.044;2023-04-08T13:54:40;9.48;;;8.43;;
33760;SDS011;20084;47.912;19.044;2023-04-08T13:57:06;9.10;;;7.20;;
33760;SDS011;20084;47.912;19.044;2023-04-08T13:59:31;15.48;;;13.98;;
33760;SDS011;20084;47.912;19.044;2023-04-08T14:01:57;10.48;;;9.48;;
33760;SDS011;20084;47.912;19.044;2023-04-08T14:04:23;7.82;;;7.03;;
33760;SDS011;20084;47.912;19.044;2023-04-08T14:06:48;9.15;;;7.30;;
33760;SDS011;20084;47.912;19.044;2023-04-08T14:09:18;8.45;;;7.65;;
33760;SDS011;20084;47.912;19.044;2023-04-08T14:11:45;7.97;;;7.18;;
33760;SDS011;20084;47.912;19.044;2023-04-08T14:14:11;8.05;;;7.25;;
33760;SDS011;20084;47.912;19.044;2023-04-08T14:16:37;9.10;;;8.20;;
33760;SDS011;20084;47.912;19.044;2023-04-08T14:19:02;11.32;;;10.27;;
33760;SDS011;20084;47.912;19.044;2023-04-08T14:21:29;9.68;;;8.75;;
33760;SDS011;20084;47.912;19.044;2023-04-08T14:23:56;10.27;;;9.30;;
33760;SDS011;20084;47.912;19.044;2023-04-08T14:26:21;9.07;;;7.88;;
33760;SDS011;20084;47.912;19.044;2023-04-08T14:28:47;10.45;;;9.10;;
33760;SDS011;20084;47.912;19.044;2023-04-08T14:31:13;10.32;;;9.32;;
33760;SDS011;20084;47.912;19.044;2023-04-08T14:33:39;10.07;;;9.07;;
33760;SDS011;20084;47.912;19.044;2023-04-08T14:36:06;10.32;;;9.23;;
33760;SDS011;20084;47.912;19.044;2023-04-08T14:38:32;15.50;;;11.98;;
33760;SDS011;20084;47.912;19.044;2023-04-08T14:40:58;11.20;;;9.43;;
33760;SDS011;20084;47.912;19.044;2023-04-08T14:43:23;12.57;;;10.50;;